createdAt,value
2023-05-05T00:00:28.760Z,14.10
2023-05-05T00:02:57.086Z,14.09
2023-05-05T00:05:26.692Z,14.07
2023-05-05T00:07:54.836Z,14.07
2023-05-05T00:10:22.906Z,14.07
2023-05-05T00:12:50.881Z,14.08
2023-05-05T00:15:19.970Z,14.08
2023-05-05T00:17:48.118Z,14.07
2023-05-05T00:20:16.300Z,14.10
2023-05-05T00:22:44.321Z,14.10
2023-05-05T00:25:12.379Z,14.10
2023-05-05T00:27:41.068Z,14.09
2023-05-05T00:30:09.460Z,14.08
2023-05-05T00:32:37.899Z,14.06
2023-05-05T00:35:06.232Z,14.05
2023-05-05T00:37:34.246Z,14.06
2023-05-05T00:40:02.244Z,14.04
2023-05-05T00:42:41.226Z,14.02
2023-05-05T00:45:10.091Z,14.02
2023-05-05T00:47:38.233Z,13.95
2023-05-05T00:50:09.423Z,13.93
2023-05-05T00:52:38.370Z,13.92
2023-05-05T00:55:06.980Z,13.86
2023-05-05T00:57:35.162Z,13.84
2023-05-05T01:00:03.821Z,13.81
2023-05-05T01:02:32.750Z,13.77
2023-05-05T01:05:01.567Z,13.76
2023-05-05T01:07:47.167Z,13.71
2023-05-05T01:10:32.490Z,13.70
2023-05-05T01:13:12.308Z,13.67
2023-05-05T01:16:05.887Z,13.65
2023-05-05T01:18:56.949Z,13.63
2023-05-05T01:21:32.689Z,13.60
2023-05-05T01:24:27.752Z,13.55
2023-05-05T01:27:17.559Z,13.56
2023-05-05T01:30:22.849Z,13.52
2023-05-05T01:32:58.214Z,13.52
2023-05-05T01:35:31.170Z,13.52
2023-05-05T01:38:05.755Z,13.53
2023-05-05T01:40:35.316Z,13.52
2023-05-05T01:43:03.254Z,13.53
2023-05-05T01:45:33.067Z,13.55
2023-05-05T01:48:01.068Z,13.56
2023-05-05T01:50:29.550Z,13.53
2023-05-05T01:52:57.761Z,13.56
2023-05-05T01:55:28.990Z,13.55
2023-05-05T01:57:57.042Z,13.52
2023-05-05T02:00:26.563Z,13.51
2023-05-05T02:02:54.951Z,13.52
2023-05-05T02:05:24.198Z,13.50
2023-05-05T02:07:52.334Z,13.48
2023-05-05T02:10:20.389Z,13.46
2023-05-05T02:12:48.306Z,13.49
2023-05-05T02:15:16.348Z,13.47
2023-05-05T02:17:44.672Z,13.47
2023-05-05T02:20:14.094Z,13.47
2023-05-05T02:22:42.226Z,13.48
2023-05-05T02:25:10.761Z,13.47
2023-05-05T02:27:39.167Z,13.47
2023-05-05T02:30:09.955Z,13.47
2023-05-05T02:32:52.140Z,13.47
2023-05-05T02:35:22.755Z,13.44
2023-05-05T02:38:01.378Z,13.43
2023-05-05T02:40:31.012Z,13.38
2023-05-05T02:43:00.241Z,13.37
2023-05-05T02:45:28.333Z,13.36
2023-05-05T02:47:56.353Z,13.32
2023-05-05T02:50:24.368Z,13.28
2023-05-05T02:52:52.332Z,13.27
2023-05-05T02:55:20.303Z,13.27
2023-05-05T02:57:57.573Z,13.21
2023-05-05T03:00:28.548Z,13.17
2023-05-05T03:03:19.265Z,13.14
2023-05-05T03:06:12.611Z,13.15
2023-05-05T03:09:00.281Z,13.12
2023-05-05T03:11:52.328Z,13.16
2023-05-05T03:14:22.335Z,13.19
2023-05-05T03:16:50.740Z,13.18
2023-05-05T03:19:20.033Z,13.19
2023-05-05T03:21:48.062Z,13.19
2023-05-05T03:24:17.159Z,13.20
2023-05-05T03:26:45.718Z,13.23
2023-05-05T03:29:14.504Z,13.24
2023-05-05T03:31:42.789Z,13.26
2023-05-05T03:34:10.875Z,13.28
2023-05-05T03:36:39.298Z,13.30
2023-05-05T03:39:07.334Z,13.34
2023-05-05T03:41:35.411Z,13.36
2023-05-05T03:44:03.381Z,13.38
2023-05-05T03:46:31.276Z,13.39
2023-05-05T03:48:59.340Z,13.41
2023-05-05T03:51:27.366Z,13.41
2023-05-05T03:53:55.304Z,13.40
2023-05-05T03:56:23.414Z,13.40
2023-05-05T03:58:51.356Z,13.39
2023-05-05T04:01:19.349Z,13.40
2023-05-05T04:03:47.529Z,13.39
2023-05-05T04:06:15.559Z,13.37
2023-05-05T04:08:43.599Z,13.37
2023-05-05T04:11:12.003Z,13.38
2023-05-05T04:13:39.984Z,13.37
2023-05-05T04:16:08.206Z,13.38
2023-05-05T04:18:36.272Z,13.40
2023-05-05T04:21:04.596Z,13.41
2023-05-05T04:23:32.685Z,13.44
2023-05-05T04:26:00.676Z,13.42
2023-05-05T04:28:28.742Z,13.40
2023-05-05T04:30:56.901Z,13.37
2023-05-05T04:33:25.037Z,13.40
2023-05-05T04:35:53.039Z,13.41
2023-05-05T04:38:22.404Z,13.42
2023-05-05T04:40:50.475Z,13.42
2023-05-05T04:43:18.447Z,13.45
2023-05-05T04:45:55.923Z,13.45
2023-05-05T04:48:24.020Z,13.45
2023-05-05T04:50:52.699Z,13.44
2023-05-05T04:53:20.740Z,13.45
2023-05-05T04:55:48.754Z,13.44
2023-05-05T04:58:16.857Z,13.46
2023-05-05T05:00:44.924Z,13.48
2023-05-05T05:03:13.493Z,13.48
2023-05-05T05:05:41.544Z,13.54
2023-05-05T05:08:09.586Z,13.57
2023-05-05T05:10:37.807Z,13.60
2023-05-05T05:13:05.866Z,13.65
2023-05-05T05:15:33.857Z,13.71
2023-05-05T05:18:01.885Z,13.73
2023-05-05T05:20:31.667Z,13.77
2023-05-05T05:22:59.817Z,13.81
2023-05-05T05:25:27.865Z,13.86
2023-05-05T05:30:30.313Z,13.92
2023-05-05T05:32:58.267Z,13.95
2023-05-05T05:35:26.335Z,13.94
2023-05-05T05:37:54.354Z,13.94
2023-05-05T05:40:22.451Z,13.96
2023-05-05T05:42:50.929Z,13.99
2023-05-05T05:45:19.109Z,14.00
2023-05-05T05:47:47.305Z,14.01
2023-05-05T05:50:15.340Z,14.01
2023-05-05T05:52:43.356Z,14.01
2023-05-05T05:55:11.438Z,14.05
2023-05-05T05:57:39.410Z,14.05
2023-05-05T06:00:08.113Z,14.05
2023-05-05T06:02:36.444Z,14.06
2023-05-05T06:05:04.568Z,14.08
2023-05-05T06:07:32.499Z,14.10
2023-05-05T06:10:10.889Z,14.15
2023-05-05T06:12:46.965Z,14.19
2023-05-05T06:15:14.918Z,14.23
2023-05-05T06:17:42.875Z,14.27
2023-05-05T06:20:11.515Z,14.30
2023-05-05T06:22:39.505Z,14.32
2023-05-05T06:25:08.032Z,14.33
2023-05-05T06:27:36.216Z,14.35
2023-05-05T06:30:04.164Z,14.36
2023-05-05T06:32:32.206Z,14.37
2023-05-05T06:35:00.369Z,14.37
2023-05-05T06:37:28.357Z,14.38
2023-05-05T06:39:56.411Z,14.42
2023-05-05T06:42:24.453Z,14.44
2023-05-05T06:44:52.506Z,14.56
2023-05-05T06:47:20.459Z,14.82
2023-05-05T06:49:48.522Z,14.96
2023-05-05T06:52:16.528Z,15.03
2023-05-05T06:54:45.108Z,15.11
2023-05-05T06:57:13.176Z,15.26
2023-05-05T06:59:41.119Z,15.23
2023-05-05T07:02:09.117Z,15.19
2023-05-05T07:04:37.911Z,15.16
2023-05-05T07:07:06.026Z,15.15
2023-05-05T07:09:34.036Z,15.17
2023-05-05T07:12:02.062Z,15.17
2023-05-05T07:14:30.093Z,15.17
2023-05-05T07:16:58.328Z,15.19
2023-05-05T07:19:26.494Z,15.22
2023-05-05T07:21:54.489Z,15.22
2023-05-05T07:24:22.474Z,15.26
2023-05-05T07:26:50.388Z,15.27
2023-05-05T07:29:18.335Z,15.25
2023-05-05T07:31:46.275Z,15.24
2023-05-05T07:34:14.371Z,15.21
2023-05-05T07:36:42.367Z,15.14
2023-05-05T07:39:10.411Z,15.20
2023-05-05T07:41:38.396Z,15.29
2023-05-05T07:44:06.498Z,15.35
2023-05-05T07:46:34.523Z,15.45
2023-05-05T07:49:02.625Z,15.54
2023-05-05T07:51:32.021Z,15.62
2023-05-05T07:54:01.282Z,15.73
2023-05-05T07:56:29.315Z,15.84
2023-05-05T07:58:57.313Z,15.93
2023-05-05T08:01:25.364Z,16.20
2023-05-05T08:03:53.469Z,16.51
2023-05-05T08:06:26.204Z,16.83
2023-05-05T08:08:54.737Z,17.11
2023-05-05T08:11:23.483Z,17.37
2023-05-05T08:13:51.570Z,17.48
2023-05-05T08:16:19.697Z,17.52
2023-05-05T08:18:47.995Z,17.52
2023-05-05T08:21:16.183Z,17.52
2023-05-05T08:23:44.409Z,17.53
2023-05-05T08:26:12.481Z,17.57
2023-05-05T08:28:40.588Z,17.62
2023-05-05T08:31:09.166Z,17.66
2023-05-05T08:33:37.203Z,17.66
2023-05-05T08:36:05.366Z,17.69
2023-05-05T08:38:33.586Z,17.77
2023-05-05T08:41:01.636Z,17.91
2023-05-05T08:43:29.707Z,18.17
2023-05-05T08:45:58.134Z,18.42
2023-05-05T08:48:26.146Z,18.69
2023-05-05T08:50:59.517Z,18.98
2023-05-05T08:53:41.370Z,19.32
2023-05-05T08:56:09.442Z,19.57
2023-05-05T08:58:38.291Z,19.84
2023-05-05T09:01:08.262Z,20.14
2023-05-05T09:03:37.048Z,20.28
2023-05-05T09:06:05.506Z,20.43
2023-05-05T09:08:33.584Z,20.52
2023-05-05T09:11:02.164Z,20.54
2023-05-05T09:13:31.238Z,20.63
2023-05-05T09:16:02.069Z,20.64
2023-05-05T09:18:30.275Z,20.85
2023-05-05T09:20:59.479Z,21.01
2023-05-05T09:23:27.576Z,21.27
2023-05-05T09:26:12.111Z,21.42
2023-05-05T09:28:40.147Z,21.53
2023-05-05T09:31:15.441Z,21.80
2023-05-05T09:33:43.499Z,21.97
2023-05-05T09:36:12.957Z,22.00
2023-05-05T09:38:40.955Z,22.03
2023-05-05T09:41:08.855Z,22.16
2023-05-05T09:43:53.036Z,22.28
2023-05-05T09:46:21.082Z,22.22
2023-05-05T09:48:49.318Z,22.23
2023-05-05T09:51:17.497Z,22.22
2023-05-05T09:53:45.520Z,22.25
2023-05-05T09:56:13.529Z,22.29
2023-05-05T09:58:41.761Z,22.48
2023-05-05T10:01:22.754Z,22.63
2023-05-05T10:03:53.981Z,22.79
2023-05-05T10:06:23.364Z,22.92
2023-05-05T10:09:02.611Z,23.07
2023-05-05T10:11:30.697Z,23.29
2023-05-05T10:13:58.711Z,23.35
2023-05-05T10:16:27.528Z,23.19
2023-05-05T10:18:57.081Z,23.10
2023-05-05T10:21:26.604Z,23.17
2023-05-05T10:23:59.675Z,23.24
2023-05-05T10:26:28.057Z,23.31
2023-05-05T10:28:59.014Z,23.39
2023-05-05T10:31:31.413Z,23.43
2023-05-05T10:34:05.114Z,23.45
2023-05-05T10:36:33.285Z,23.53
2023-05-05T10:39:01.597Z,23.62
2023-05-05T10:41:29.684Z,23.75
2023-05-05T10:44:03.678Z,23.77
2023-05-05T10:46:32.585Z,23.71
2023-05-05T10:49:13.461Z,23.69
2023-05-05T10:51:41.715Z,23.73
2023-05-05T10:54:22.382Z,23.71
2023-05-05T10:56:50.341Z,23.74
2023-05-05T10:59:41.607Z,23.77
2023-05-05T11:02:26.383Z,23.79
2023-05-05T11:05:18.962Z,23.72
2023-05-05T11:07:47.738Z,23.72
2023-05-05T11:10:16.452Z,23.73
2023-05-05T11:12:53.418Z,23.65
2023-05-05T11:15:30.668Z,23.58
2023-05-05T11:17:59.521Z,23.60
2023-05-05T11:20:36.727Z,23.64
2023-05-05T11:23:05.301Z,23.72
2023-05-05T11:25:36.765Z,23.71
2023-05-05T11:28:15.923Z,23.70
2023-05-05T11:30:56.381Z,23.61
2023-05-05T11:33:37.338Z,23.60
2023-05-05T11:36:12.969Z,23.57
2023-05-05T11:38:40.777Z,23.51
2023-05-05T11:41:11.392Z,23.44
2023-05-05T11:43:39.706Z,23.43
2023-05-05T11:46:14.602Z,23.43
2023-05-05T11:48:49.238Z,23.47
2023-05-05T11:51:17.840Z,23.50
2023-05-05T11:53:49.279Z,23.58
2023-05-05T11:56:23.121Z,23.60
2023-05-05T11:58:51.254Z,23.71
2023-05-05T12:01:19.218Z,23.78
2023-05-05T12:03:47.496Z,23.85
2023-05-05T12:06:15.593Z,23.82
2023-05-05T12:08:43.550Z,23.77
2023-05-05T12:11:12.069Z,23.83
2023-05-05T12:13:40.183Z,23.84
2023-05-05T12:16:14.946Z,23.92
2023-05-05T12:18:43.296Z,24.06
2023-05-05T12:21:18.558Z,24.23
2023-05-05T12:23:46.701Z,24.37
2023-05-05T12:26:31.337Z,24.47
2023-05-05T12:29:00.174Z,24.60
2023-05-05T12:31:41.901Z,24.81
2023-05-05T12:34:11.008Z,25.00
2023-05-05T12:36:39.136Z,25.09
2023-05-05T12:39:07.091Z,25.21
2023-05-05T12:41:35.414Z,25.35
2023-05-05T12:44:04.421Z,25.42
2023-05-05T12:46:33.256Z,25.41
2023-05-05T12:49:02.825Z,25.43
2023-05-05T12:51:30.819Z,25.32
2023-05-05T12:54:09.550Z,25.24
2023-05-05T12:56:42.008Z,25.09
2023-05-05T12:59:11.017Z,25.04
2023-05-05T13:01:55.286Z,25.05
2023-05-05T13:04:25.263Z,25.04
2023-05-05T13:07:12.969Z,25.00
2023-05-05T13:09:41.080Z,24.86
2023-05-05T13:12:13.694Z,24.88
2023-05-05T13:14:42.149Z,24.89
2023-05-05T13:17:10.467Z,24.84
2023-05-05T13:19:43.282Z,24.83
2023-05-05T13:22:11.541Z,24.81
2023-05-05T13:24:50.493Z,24.90
2023-05-05T13:27:21.129Z,24.93
2023-05-05T13:29:49.393Z,24.96
2023-05-05T13:32:17.282Z,24.86
2023-05-05T13:34:45.651Z,24.85
2023-05-05T13:37:13.791Z,24.89
2023-05-05T13:39:41.879Z,25.03
2023-05-05T13:42:10.119Z,25.13
2023-05-05T13:44:38.200Z,25.29
2023-05-05T13:47:06.316Z,25.43
2023-05-05T13:49:34.452Z,25.51
2023-05-05T13:52:02.863Z,25.57
2023-05-05T13:54:30.896Z,25.55
2023-05-05T13:56:59.445Z,25.56
2023-05-05T13:59:27.439Z,25.59
2023-05-05T14:01:55.412Z,25.74
2023-05-05T14:04:23.476Z,25.72
2023-05-05T14:06:51.555Z,25.74
2023-05-05T14:09:19.432Z,25.68
2023-05-05T14:11:47.491Z,25.52
2023-05-05T14:14:15.574Z,25.38
2023-05-05T14:16:43.657Z,25.33
2023-05-05T14:19:11.673Z,25.27
2023-05-05T14:21:39.793Z,25.24
2023-05-05T14:24:08.101Z,25.23
2023-05-05T14:26:36.146Z,25.18
2023-05-05T14:29:04.129Z,25.05
2023-05-05T14:31:32.218Z,24.94
2023-05-05T14:34:00.184Z,24.74
2023-05-05T14:36:28.183Z,24.62
2023-05-05T14:38:56.218Z,24.49
2023-05-05T14:41:24.305Z,24.39
2023-05-05T14:43:52.461Z,24.28
2023-05-05T14:46:20.714Z,24.13
2023-05-05T14:48:49.712Z,24.07
2023-05-05T14:51:17.724Z,23.99
2023-05-05T14:53:45.851Z,23.90
2023-05-05T14:56:13.937Z,23.80
2023-05-05T14:58:41.905Z,23.67
2023-05-05T15:01:09.840Z,23.59
2023-05-05T15:03:38.012Z,23.51
2023-05-05T15:06:06.934Z,23.40
2023-05-05T15:08:35.007Z,23.33
2023-05-05T15:11:03.071Z,23.26
2023-05-05T15:13:31.467Z,23.19
2023-05-05T15:15:59.462Z,23.12
2023-05-05T15:18:27.532Z,23.04
2023-05-05T15:20:55.413Z,23.00
2023-05-05T15:23:23.391Z,22.98
2023-05-05T15:25:51.339Z,22.93
2023-05-05T15:28:20.094Z,22.91
2023-05-05T15:30:48.032Z,22.86
2023-05-05T15:33:16.281Z,22.79
2023-05-05T15:35:44.326Z,22.75
2023-05-05T15:38:12.320Z,22.72
2023-05-05T15:40:40.291Z,22.63
2023-05-05T15:43:08.246Z,22.53
2023-05-05T15:45:36.533Z,22.48
2023-05-05T15:48:04.688Z,22.46
2023-05-05T15:50:33.033Z,22.44
2023-05-05T15:53:01.807Z,22.40
2023-05-05T15:55:29.962Z,22.36
2023-05-05T15:57:58.095Z,22.30
2023-05-05T16:00:27.011Z,22.17
2023-05-05T16:02:55.081Z,22.10
2023-05-05T16:05:23.363Z,22.01
2023-05-05T16:07:51.128Z,21.92
2023-05-05T16:10:20.763Z,21.80
2023-05-05T16:12:48.825Z,21.56
2023-05-05T16:15:16.785Z,21.18
2023-05-05T16:17:44.757Z,20.74
2023-05-05T16:20:13.048Z,20.20
2023-05-05T16:22:41.017Z,19.78
2023-05-05T16:25:09.630Z,19.48
2023-05-05T16:27:37.818Z,19.26
2023-05-05T16:30:06.210Z,19.04
2023-05-05T16:32:34.215Z,18.84
2023-05-05T16:35:03.412Z,18.67
2023-05-05T16:37:31.476Z,18.53
2023-05-05T16:39:59.479Z,18.40
2023-05-05T16:42:27.741Z,18.24
2023-05-05T16:44:55.738Z,18.13
2023-05-05T16:47:23.836Z,17.92
2023-05-05T16:49:51.875Z,17.87
2023-05-05T16:52:20.046Z,17.90
2023-05-05T16:54:49.327Z,17.86
2023-05-05T16:57:17.264Z,17.75
2023-05-05T16:59:45.184Z,17.63
2023-05-05T17:02:13.104Z,17.52
2023-05-05T17:04:41.116Z,17.46
2023-05-05T17:07:09.193Z,17.41
2023-05-05T17:09:37.317Z,17.33
2023-05-05T17:12:05.720Z,17.29
2023-05-05T17:14:34.952Z,17.22
2023-05-05T17:17:02.901Z,17.23
2023-05-05T17:19:30.806Z,17.27
2023-05-05T17:21:58.962Z,17.21
2023-05-05T17:24:27.097Z,17.19
2023-05-05T17:26:55.488Z,17.20
2023-05-05T17:29:24.640Z,17.23
2023-05-05T17:31:52.974Z,17.22
2023-05-05T17:34:21.129Z,17.23
2023-05-05T17:36:49.185Z,17.22
2023-05-05T17:39:17.312Z,17.25
2023-05-05T17:41:45.326Z,17.25
2023-05-05T17:44:13.322Z,17.25
2023-05-05T17:46:41.828Z,17.28
2023-05-05T17:49:09.897Z,17.27
2023-05-05T17:51:37.918Z,17.23
2023-05-05T17:54:06.238Z,17.22
2023-05-05T17:56:36.145Z,17.22
2023-05-05T17:59:04.335Z,17.23
2023-05-05T18:01:32.330Z,17.19
2023-05-05T18:04:00.462Z,17.16
2023-05-05T18:06:29.455Z,17.16
2023-05-05T18:08:57.839Z,17.16
2023-05-05T18:11:29.075Z,17.17
2023-05-05T18:13:57.559Z,17.16
2023-05-05T18:16:25.742Z,17.10
2023-05-05T18:18:53.885Z,17.07
2023-05-05T18:21:21.902Z,17.04
2023-05-05T18:23:51.191Z,17.04
2023-05-05T18:26:19.266Z,17.02
2023-05-05T18:28:47.399Z,17.00
2023-05-05T18:31:15.522Z,16.99
2023-05-05T18:33:45.084Z,16.94
2023-05-05T18:36:14.101Z,16.93
2023-05-05T18:38:42.108Z,16.88
2023-05-05T18:41:10.093Z,16.85
2023-05-05T18:43:38.196Z,16.86
2023-05-05T18:46:06.250Z,16.75
2023-05-05T18:48:34.236Z,16.75
2023-05-05T18:51:05.914Z,16.75
2023-05-05T18:53:34.102Z,16.75
2023-05-05T18:56:02.772Z,16.71
2023-05-05T18:58:31.887Z,16.71
2023-05-05T19:00:59.940Z,16.68
2023-05-05T19:03:28.094Z,16.70
2023-05-05T19:05:56.081Z,16.69
2023-05-05T19:08:24.169Z,16.69
2023-05-05T19:10:52.762Z,16.70
2023-05-05T19:13:20.793Z,16.68
2023-05-05T19:15:48.827Z,16.68
2023-05-05T19:18:17.484Z,16.67
2023-05-05T19:20:45.428Z,16.69
2023-05-05T19:23:13.625Z,16.70
2023-05-05T19:25:41.610Z,16.68
2023-05-05T19:28:09.649Z,16.70
2023-05-05T19:30:38.058Z,16.69
2023-05-05T19:33:06.274Z,16.68
2023-05-05T19:35:34.331Z,16.70
2023-05-05T19:38:02.426Z,16.73
2023-05-05T19:40:30.354Z,16.72
2023-05-05T19:42:58.329Z,16.69
2023-05-05T19:45:26.354Z,16.66
2023-05-05T19:47:54.398Z,16.64
2023-05-05T19:50:22.723Z,16.61
2023-05-05T19:52:50.749Z,16.61
2023-05-05T19:55:19.858Z,16.59
2023-05-05T19:57:47.834Z,16.58
2023-05-05T20:00:16.016Z,16.55
2023-05-05T20:02:44.167Z,16.55
2023-05-05T20:05:15.147Z,16.56
2023-05-05T20:07:43.530Z,16.58
2023-05-05T20:10:12.196Z,16.60
2023-05-05T20:12:43.526Z,16.61
2023-05-05T20:15:12.724Z,16.62
2023-05-05T20:17:40.817Z,16.61
2023-05-05T20:20:09.465Z,16.58
2023-05-05T20:22:38.875Z,16.55
2023-05-05T20:25:08.840Z,16.52
2023-05-05T20:27:36.990Z,16.47
2023-05-05T20:30:05.778Z,16.45
2023-05-05T20:32:33.841Z,16.40
2023-05-05T20:35:01.968Z,16.40
2023-05-05T20:37:30.022Z,16.38
2023-05-05T20:39:59.524Z,16.36
2023-05-05T20:42:28.989Z,16.31
2023-05-05T20:44:57.030Z,16.28
2023-05-05T20:47:25.562Z,16.23
2023-05-05T20:49:53.605Z,16.18
2023-05-05T20:52:21.644Z,16.13
2023-05-05T20:54:49.589Z,16.09
2023-05-05T20:57:17.602Z,16.03
2023-05-05T20:59:45.545Z,15.99
2023-05-05T21:02:13.628Z,15.94
2023-05-05T21:04:41.920Z,15.89
2023-05-05T21:07:09.915Z,15.85
2023-05-05T21:09:37.987Z,15.81
2023-05-05T21:12:06.195Z,15.80
2023-05-05T21:14:34.205Z,15.75
2023-05-05T21:17:02.293Z,15.71
2023-05-05T21:19:30.409Z,15.64
2023-05-05T21:22:00.394Z,15.55
2023-05-05T21:24:29.383Z,15.54
2023-05-05T21:26:57.650Z,15.52
2023-05-05T21:29:26.091Z,15.46
2023-05-05T21:31:54.087Z,15.45
2023-05-05T21:34:22.086Z,15.41
2023-05-05T21:36:50.070Z,15.38
2023-05-05T21:39:18.613Z,15.36
2023-05-05T21:41:46.646Z,15.34
2023-05-05T21:44:14.869Z,15.32
2023-05-05T21:46:42.956Z,15.29
2023-05-05T21:49:17.286Z,15.28
2023-05-05T21:51:46.265Z,15.26
2023-05-05T21:54:14.362Z,15.22
2023-05-05T21:56:42.507Z,15.19
2023-05-05T21:59:10.518Z,15.16
2023-05-05T22:01:38.651Z,15.16
2023-05-05T22:04:06.789Z,15.12
2023-05-05T22:06:34.853Z,15.10
2023-05-05T22:09:02.827Z,15.09
2023-05-05T22:11:30.819Z,15.07
2023-05-05T22:13:58.862Z,15.01
2023-05-05T22:16:26.945Z,14.98
2023-05-05T22:18:55.003Z,14.94
2023-05-05T22:21:23.383Z,14.90
2023-05-05T22:23:51.446Z,14.87
2023-05-05T22:26:19.366Z,14.86
2023-05-05T22:28:47.520Z,14.88
2023-05-05T22:31:15.605Z,14.89
2023-05-05T22:33:43.571Z,14.89
2023-05-05T22:36:11.994Z,14.89
2023-05-05T22:38:39.924Z,14.90
2023-05-05T22:41:08.664Z,14.91
2023-05-05T22:43:36.614Z,14.91
2023-05-05T22:46:04.684Z,14.91
2023-05-05T22:48:32.727Z,14.88
2023-05-05T22:51:01.265Z,14.84
2023-05-05T22:53:29.310Z,14.81
2023-05-05T22:55:57.378Z,14.81
2023-05-05T22:58:25.962Z,14.79
2023-05-05T23:00:54.006Z,14.78
2023-05-05T23:03:22.051Z,14.75
2023-05-05T23:05:50.155Z,14.70
2023-05-05T23:08:18.130Z,14.71
2023-05-05T23:10:46.119Z,14.73
2023-05-05T23:13:14.222Z,14.68
2023-05-05T23:15:42.488Z,14.67
2023-05-05T23:18:10.498Z,14.65
2023-05-05T23:20:38.518Z,14.64
2023-05-05T23:23:06.624Z,14.62
2023-05-05T23:25:34.532Z,14.58
2023-05-05T23:28:02.494Z,14.58
2023-05-05T23:30:30.752Z,14.56
2023-05-05T23:32:59.306Z,14.54
2023-05-05T23:35:27.612Z,14.56
2023-05-05T23:37:55.619Z,14.56
2023-05-05T23:40:23.820Z,14.57
2023-05-05T23:42:51.813Z,14.59
2023-05-05T23:45:19.751Z,14.59
2023-05-05T23:47:47.885Z,14.59
2023-05-05T23:50:15.828Z,14.57
2023-05-05T23:52:43.871Z,14.56
2023-05-05T23:55:12.148Z,14.52
2023-05-05T23:57:40.171Z,14.54
